Time;durP1;ratioP1;P1;durP2;ratioP2;P2;SDS_P1;SDS_P2;PMS_P1;PMS_P2;Temp;Humidity;BMP_temperature;BMP_pressure;BME280_temperature;BME280_humidity;BME280_pressure;Samples;Min_cycle;Max_cycle;Signal;HPM_P1;HPM_P2
2023/07/21 00:01:21;;;;;;;13.73;10.45;;;;;;;27.72;69.94;99365.34;5122959;27;20030;-64
2023/07/21 00:03:48;;;;;;;14.70;9.50;;;;;;;27.66;68.18;99361.84;5121716;27;20345;-64
2023/07/21 00:06:17;;;;;;;10.70;8.07;;;;;;;27.49;68.11;99351.31;5124502;27;20030;-65
2023/07/21 00:08:43;;;;;;;11.65;8.57;;;;;;;27.50;69.09;99352.13;5135282;27;20363;-64
2023/07/21 00:11:09;;;;;;;10.35;8.40;;;;;;;27.52;67.59;99355.38;5130382;27;20035;-64
2023/07/21 00:13:35;;;;;;;11.02;7.40;;;;;;;27.57;66.12;99355.34;5130873;27;20308;-65
2023/07/21 00:16:05;;;;;;;10.52;7.70;;;;;;;27.50;67.35;99363.00;5130395;27;20345;-64
2023/07/21 00:18:32;;;;;;;10.32;7.45;;;;;;;27.58;66.47;99352.34;5130201;27;20031;-65
2023/07/21 00:20:57;;;;;;;8.40;6.82;;;;;;;27.54;65.41;99351.28;5130231;27;20101;-64
2023/07/21 00:23:24;;;;;;;8.95;7.30;;;;;;;27.51;66.70;99362.72;5132069;27;20192;-64
2023/07/21 00:25:50;;;;;;;12.55;8.13;;;;;;;27.50;65.92;99357.56;5131334;27;20288;-65
2023/07/21 00:28:17;;;;;;;13.23;8.30;;;;;;;27.42;66.96;99358.19;5131384;27;20043;-64
2023/07/21 00:30:46;;;;;;;11.73;8.98;;;;;;;27.32;67.75;99357.16;5121561;27;20055;-65
2023/07/21 00:33:13;;;;;;;10.25;7.90;;;;;;;27.26;66.58;99355.56;5122174;27;20100;-64
2023/07/21 00:35:39;;;;;;;11.77;8.10;;;;;;;27.22;66.84;99354.47;5122483;27;20039;-65
2023/07/21 00:38:04;;;;;;;9.98;7.78;;;;;;;27.17;67.35;99359.94;5121831;27;20027;-64
2023/07/21 00:40:35;;;;;;;9.95;7.88;;;;;;;27.13;66.89;99350.72;5130437;27;20268;-63
2023/07/21 00:43:03;;;;;;;8.38;7.20;;;;;;;27.10;66.84;99350.47;5122034;27;20039;-63
2023/07/21 00:45:33;;;;;;;8.50;7.15;;;;;;;27.07;67.07;99357.28;5130710;27;20030;-63
2023/07/21 00:48:04;;;;;;;10.13;6.97;;;;;;;27.15;68.43;99350.44;5121408;27;20119;-63
2023/07/21 00:50:29;;;;;;;11.40;7.18;;;;;;;27.23;67.50;99352.59;5120654;27;20335;-62
2023/07/21 00:52:56;;;;;;;9.25;6.30;;;;;;;27.30;66.76;99344.94;5121860;27;20034;-63
2023/07/21 00:55:22;;;;;;;10.77;6.65;;;;;;;27.26;66.22;99352.84;5121776;27;20335;-63
2023/07/21 00:57:47;;;;;;;9.70;6.28;;;;;;;27.34;66.41;99348.72;5121140;27;20043;-63
2023/07/21 01:00:13;;;;;;;9.75;7.15;;;;;;;27.34;65.26;99346.81;5121994;27;20137;-63
2023/07/21 01:02:39;;;;;;;11.45;6.18;;;;;;;27.23;66.11;99347.16;5122173;28;20039;-63
2023/07/21 01:05:06;;;;;;;7.32;5.85;;;;;;;27.20;66.76;99348.53;5122392;28;20039;-63
2023/07/21 01:07:34;;;;;;;9.68;6.43;;;;;;;27.16;66.09;99349.38;5121553;28;20333;-63
2023/07/21 01:10:00;;;;;;;11.07;6.00;;;;;;;27.13;66.74;99347.19;5130434;28;20038;-63
2023/07/21 01:12:26;;;;;;;7.80;5.85;;;;;;;27.09;65.16;99344.22;5121471;28;20380;-63
2023/07/21 01:14:52;;;;;;;9.55;6.50;;;;;;;26.87;66.32;99351.88;5122097;28;20043;-63
2023/07/21 01:17:19;;;;;;;9.70;6.47;;;;;;;26.70;68.43;99352.22;5130299;28;20046;-63
2023/07/21 01:19:48;;;;;;;8.93;6.68;;;;;;;26.72;68.75;99356.28;5121103;28;20058;-63
2023/07/21 01:22:28;;;;;;;7.38;6.45;;;;;;;26.71;68.56;99353.84;5131522;28;20027;-62
2023/07/21 01:24:54;;;;;;;9.68;6.00;;;;;;;26.68;68.22;99349.78;5125605;28;20269;-63
2023/07/21 01:27:22;;;;;;;8.00;6.18;;;;;;;26.66;68.41;99348.44;5121422;28;20063;-64
2023/07/21 01:29:50;;;;;;;9.05;6.50;;;;;;;26.50;69.67;99344.97;5120880;28;20623;-63
2023/07/21 01:32:18;;;;;;;7.38;6.15;;;;;;;26.45;70.36;99347.69;5121043;28;20398;-63
2023/07/21 01:34:45;;;;;;;8.98;6.63;;;;;;;26.51;69.73;99354.72;5131315;28;20047;-64
2023/07/21 01:37:12;;;;;;;10.05;6.80;;;;;;;26.36;69.37;99349.34;5122575;28;20129;-63
2023/07/21 01:39:38;;;;;;;8.05;5.97;;;;;;;26.45;68.98;99350.41;5131150;28;20047;-63
2023/07/21 01:42:05;;;;;;;8.15;6.38;;;;;;;26.47;69.67;99347.41;5121322;28;20042;-63
2023/07/21 01:44:31;;;;;;;8.07;6.88;;;;;;;26.48;69.40;99351.75;5121515;28;20368;-63
2023/07/21 01:46:56;;;;;;;8.50;6.57;;;;;;;26.48;68.86;99352.56;5121054;28;20039;-63
2023/07/21 01:49:22;;;;;;;8.05;6.25;;;;;;;26.37;68.81;99357.22;5121214;28;20119;-63
2023/07/21 01:51:48;;;;;;;8.00;7.20;;;;;;;26.11;70.01;99360.22;5121664;28;20045;-64
2023/07/21 01:54:22;;;;;;;9.55;6.90;;;;;;;26.03;70.23;99361.56;5121659;28;20330;-63
2023/07/21 01:56:54;;;;;;;8.80;6.65;;;;;;;25.90;70.79;99368.31;5120760;28;20040;-63
2023/07/21 01:59:21;;;;;;;10.38;6.85;;;;;;;25.99;70.46;99374.03;5121915;28;20333;-63
2023/07/21 02:01:50;;;;;;;7.78;6.63;;;;;;;26.07;70.43;99371.59;5121868;28;20206;-64
2023/07/21 02:04:16;;;;;;;9.23;6.90;;;;;;;26.12;70.65;99372.69;5124883;27;20229;-63
2023/07/21 02:06:41;;;;;;;8.15;6.65;;;;;;;26.20;70.15;99377.56;5125246;27;20096;-63
2023/07/21 02:09:07;;;;;;;8.27;6.85;;;;;;;26.15;70.78;99380.28;5124854;27;20039;-63
2023/07/21 02:11:33;;;;;;;7.07;6.13;;;;;;;26.13;70.85;99383.25;5125195;27;20042;-64
2023/07/21 02:13:59;;;;;;;10.30;6.97;;;;;;;26.23;69.73;99379.72;5125814;27;20039;-63
2023/07/21 02:16:25;;;;;;;11.00;7.10;;;;;;;26.23;68.89;99387.88;5125783;27;20034;-64
2023/07/21 02:18:52;;;;;;;9.13;6.07;;;;;;;25.95;69.66;99381.88;5134360;27;20040;-63
2023/07/21 02:21:18;;;;;;;10.52;7.47;;;;;;;25.39;72.12;99392.63;5142298;27;20050;-63
2023/07/21 02:23:43;;;;;;;7.78;6.97;;;;;;;25.51;72.50;99395.09;5141950;27;20039;-62
2023/07/21 02:26:09;;;;;;;11.43;7.40;;;;;;;25.63;72.82;99390.25;5140636;27;20058;-63
2023/07/21 02:28:34;;;;;;;13.13;7.40;;;;;;;25.76;72.40;99394.34;5141590;27;20075;-63
2023/07/21 02:31:04;;;;;;;7.78;6.55;;;;;;;25.84;72.09;99398.44;5141239;27;20228;-63
2023/07/21 02:33:30;;;;;;;8.82;6.03;;;;;;;25.92;71.48;99396.00;5140541;27;20050;-63
2023/07/21 02:35:57;;;;;;;7.88;6.45;;;;;;;25.98;72.07;99399.53;5140629;27;20035;-63
2023/07/21 02:38:22;;;;;;;7.88;6.38;;;;;;;26.01;71.08;99404.44;5141883;27;20031;-63
2023/07/21 02:40:48;;;;;;;8.20;7.25;;;;;;;26.06;70.70;99399.81;5140748;27;20054;-63
2023/07/21 02:43:13;;;;;;;9.13;6.47;;;;;;;25.88;70.73;99402.22;5140800;27;20031;-63
2023/07/21 02:45:39;;;;;;;8.75;6.43;;;;;;;25.80;70.78;99417.16;5140947;27;20031;-64
2023/07/21 02:48:10;;;;;;;10.10;5.72;;;;;;;25.78;70.09;99414.69;5141151;27;20057;-63
2023/07/21 02:50:35;;;;;;;14.07;6.20;;;;;;;25.71;69.32;99411.44;5133119;27;20301;-63
2023/07/21 02:53:01;;;;;;;12.32;5.78;;;;;;;25.77;68.92;99418.50;5141368;27;20047;-63
2023/07/21 02:55:27;;;;;;;14.55;6.53;;;;;;;25.77;69.97;99421.22;5139895;27;20068;-63
2023/07/21 02:57:53;;;;;;;11.07;6.63;;;;;;;25.81;69.93;99426.91;5140953;27;20047;-62
2023/07/21 03:00:18;;;;;;;11.57;6.97;;;;;;;25.76;69.85;99424.19;5141358;27;20236;-63
2023/07/21 03:02:44;;;;;;;9.55;7.10;;;;;;;25.74;70.15;99419.03;5140180;27;20031;-63
2023/07/21 03:05:10;;;;;;;11.80;6.63;;;;;;;25.66;69.84;99432.31;5140572;27;20102;-63
2023/07/21 03:07:36;;;;;;;16.30;8.23;;;;;;;25.75;69.86;99428.81;5140756;27;20035;-63
2023/07/21 03:10:02;;;;;;;7.80;6.38;;;;;;;25.86;69.25;99432.34;5140650;27;20042;-63
2023/07/21 03:12:27;;;;;;;9.98;7.20;;;;;;;25.81;69.15;99443.19;5137408;27;20224;-63
2023/07/21 03:14:53;;;;;;;10.48;6.80;;;;;;;25.84;69.59;99447.25;5122705;27;20041;-63
2023/07/21 03:17:18;;;;;;;16.02;6.85;;;;;;;25.80;68.50;99428.00;5122059;27;20032;-63
2023/07/21 03:19:44;;;;;;;11.00;7.10;;;;;;;25.91;68.59;99448.63;5124902;27;20039;-63
2023/07/21 03:22:09;;;;;;;7.82;6.25;;;;;;;25.99;68.26;99442.66;5124598;27;20376;-63
2023/07/21 03:24:34;;;;;;;8.88;6.03;;;;;;;26.00;68.13;99448.91;5123801;27;20061;-63
2023/07/21 03:27:01;;;;;;;9.75;6.25;;;;;;;26.01;67.95;99443.22;5125565;27;20343;-63
2023/07/21 03:29:26;;;;;;;11.07;6.80;;;;;;;25.91;68.01;99443.19;5124886;27;20051;-63
2023/07/21 03:31:52;;;;;;;10.85;6.20;;;;;;;25.84;69.48;99444.53;5124115;27;20039;-63
2023/07/21 03:34:18;;;;;;;16.45;6.40;;;;;;;25.82;69.50;99438.56;5122422;27;20032;-63
2023/07/21 03:36:43;;;;;;;10.48;6.72;;;;;;;25.86;69.92;99443.19;5125396;27;20037;-64
2023/07/21 03:39:08;;;;;;;12.63;6.30;;;;;;;25.97;69.26;99446.72;5125308;27;20039;-63
2023/07/21 03:41:34;;;;;;;10.85;7.15;;;;;;;26.07;68.13;99446.75;5123486;27;20034;-63
2023/07/21 03:44:00;;;;;;;7.75;5.90;;;;;;;26.08;67.45;99451.09;5123187;27;20032;-63
2023/07/21 03:46:25;;;;;;;11.35;5.50;;;;;;;26.15;66.11;99451.66;5122651;27;20042;-63
2023/07/21 03:48:50;;;;;;;10.43;6.28;;;;;;;26.20;65.65;99458.97;5124334;27;20232;-63
2023/07/21 03:51:16;;;;;;;12.95;5.95;;;;;;;26.24;65.97;99455.44;5127094;27;20035;-63
2023/07/21 03:53:41;;;;;;;17.95;8.07;;;;;;;26.35;65.34;99453.56;5123835;27;20099;-63
2023/07/21 03:56:07;;;;;;;14.25;7.38;;;;;;;26.39;65.25;99454.66;5122282;27;20031;-63
2023/07/21 03:58:33;;;;;;;9.98;5.88;;;;;;;26.42;65.73;99459.53;5125229;27;20122;-63
2023/07/21 04:00:59;;;;;;;11.23;6.80;;;;;;;26.45;65.43;99461.72;5125168;27;20290;-62
2023/07/21 04:03:24;;;;;;;10.98;6.68;;;;;;;26.47;65.15;99470.41;5121909;27;20046;-63
2023/07/21 04:05:51;;;;;;;8.88;6.05;;;;;;;26.44;64.97;99472.84;5120927;27;20098;-63
2023/07/21 04:08:18;;;;;;;12.30;5.25;;;;;;;26.40;64.59;99475.28;5123317;27;20131;-63
2023/07/21 04:10:44;;;;;;;10.70;5.60;;;;;;;26.35;64.46;99467.97;5123794;27;20041;-63
2023/07/21 04:13:09;;;;;;;11.98;8.18;;;;;;;26.25;65.03;99469.84;5123420;27;20098;-64
2023/07/21 04:15:35;;;;;;;11.30;5.30;;;;;;;26.21;64.79;99466.84;5120982;27;20028;-63
2023/07/21 04:18:01;;;;;;;12.18;5.03;;;;;;;26.30;64.90;99476.06;5121468;27;20042;-64
2023/07/21 04:20:28;;;;;;;8.02;5.22;;;;;;;26.27;63.97;99473.91;5124733;27;20274;-63
2023/07/21 04:22:54;;;;;;;9.25;5.05;;;;;;;26.40;63.38;99478.81;5120855;27;20035;-63
2023/07/21 04:25:20;;;;;;;10.10;4.97;;;;;;;26.42;63.64;99480.44;5120254;27;20233;-63
2023/07/21 04:27:50;;;;;;;7.68;4.70;;;;;;;26.61;63.02;99487.75;5123044;27;20303;-63
2023/07/21 04:30:16;;;;;;;8.93;5.43;;;;;;;26.66;63.61;99487.75;5120387;27;20291;-63
2023/07/21 04:32:42;;;;;;;11.13;5.53;;;;;;;26.76;63.12;99486.13;5124410;27;20043;-63
2023/07/21 04:35:10;;;;;;;12.88;4.97;;;;;;;26.93;61.24;99487.44;5121118;27;20212;-63
2023/07/21 04:37:36;;;;;;;9.60;4.70;;;;;;;26.74;60.17;99502.69;5122894;27;20184;-63
2023/07/21 04:40:04;;;;;;;16.25;5.90;;;;;;;26.77;60.65;99504.03;5106354;27;20030;-63
2023/07/21 04:42:29;;;;;;;8.48;4.72;;;;;;;26.70;59.79;99507.03;5124043;27;20023;-62
2023/07/21 04:44:55;;;;;;;8.75;4.10;;;;;;;27.00;58.79;99511.63;5124180;27;20347;-63
2023/07/21 04:47:22;;;;;;;9.07;4.70;;;;;;;27.11;58.24;99507.00;5123843;27;20041;-63
2023/07/21 04:49:48;;;;;;;8.13;4.65;;;;;;;27.10;57.73;99510.81;5125606;27;20463;-63
2023/07/21 04:52:14;;;;;;;8.13;4.72;;;;;;;27.06;59.04;99512.47;5122095;27;20051;-63
2023/07/21 04:54:39;;;;;;;8.23;4.90;;;;;;;27.18;58.17;99519.22;5120003;27;20111;-63
2023/07/21 04:57:05;;;;;;;6.65;4.95;;;;;;;27.42;56.67;99513.97;5121126;28;20053;-63
2023/07/21 04:59:30;;;;;;;7.63;4.75;;;;;;;27.63;55.36;99501.13;5123750;27;20040;-63
2023/07/21 05:01:56;;;;;;;9.55;4.82;;;;;;;27.80;54.86;99511.63;5125305;27;20072;-63
2023/07/21 05:04:22;;;;;;;11.18;5.95;;;;;;;28.02;54.11;99505.78;5122640;28;20077;-63
2023/07/21 05:06:48;;;;;;;7.80;4.65;;;;;;;28.21;52.12;99513.03;5121749;28;20038;-63
2023/07/21 05:09:14;;;;;;;8.82;4.70;;;;;;;28.23;52.90;99516.31;5123203;28;20091;-63
2023/07/21 05:11:40;;;;;;;12.77;4.93;;;;;;;28.37;51.98;99513.75;5122126;28;20074;-63
2023/07/21 05:14:06;;;;;;;15.27;5.90;;;;;;;28.53;51.58;99522.63;5121864;28;20039;-63
2023/07/21 05:16:37;;;;;;;10.60;5.35;;;;;;;28.76;51.22;99519.13;5120099;28;20321;-63
2023/07/21 05:19:05;;;;;;;11.70;4.85;;;;;;;28.98;50.47;99515.94;5127271;28;20352;-63
2023/07/21 05:21:31;;;;;;;8.27;5.07;;;;;;;29.24;50.67;99522.78;5121186;28;20039;-63
2023/07/21 05:23:57;;;;;;;5.85;4.70;;;;;;;29.34;48.93;99518.31;5123645;28;20039;-63
2023/07/21 05:26:22;;;;;;;8.50;4.72;;;;;;;29.45;48.94;99525.28;5122827;28;20043;-63
2023/07/21 05:28:54;;;;;;;12.82;4.95;;;;;;;29.64;48.91;99519.88;5120885;28;20043;-64
2023/07/21 05:31:19;;;;;;;6.95;4.53;;;;;;;29.67;48.05;99516.56;5121791;28;20214;-63
2023/07/21 05:33:45;;;;;;;7.28;4.03;;;;;;;29.74;48.39;99525.19;5120528;28;20119;-63
2023/07/21 05:36:11;;;;;;;5.38;3.83;;;;;;;29.94;47.30;99521.38;5121009;27;20036;-64
2023/07/21 05:38:37;;;;;;;6.10;4.20;;;;;;;30.05;47.48;99531.88;5127369;27;20360;-63
2023/07/21 05:41:04;;;;;;;8.57;4.15;;;;;;;30.09;45.91;99518.44;5127039;27;20039;-63
2023/07/21 05:43:30;;;;;;;7.47;3.92;;;;;;;30.16;47.15;99527.88;5126422;27;20035;-64
2023/07/21 05:45:56;;;;;;;8.15;4.07;;;;;;;30.41;46.58;99534.09;5124062;27;20031;-64
2023/07/21 05:48:21;;;;;;;8.05;3.67;;;;;;;30.42;46.06;99535.72;5126359;27;20035;-63
2023/07/21 05:50:47;;;;;;;11.77;4.47;;;;;;;30.46;45.09;99531.28;5127670;27;20038;-63
2023/07/21 05:53:12;;;;;;;12.05;4.75;;;;;;;30.63;45.29;99531.56;5127097;27;20035;-64
2023/07/21 05:55:41;;;;;;;8.50;4.80;;;;;;;30.79;45.16;99527.44;5123215;27;20097;-63
2023/07/21 05:58:08;;;;;;;8.02;4.20;;;;;;;30.80;44.70;99534.53;5126650;27;20032;-63
2023/07/21 06:00:36;;;;;;;5.35;3.75;;;;;;;31.01;43.26;99532.25;5124753;27;21262;-63
2023/07/21 06:03:02;;;;;;;8.15;4.00;;;;;;;31.19;43.64;99529.75;5123538;27;20031;-63
2023/07/21 06:05:29;;;;;;;6.43;4.40;;;;;;;31.41;42.03;99527.16;5127476;27;20039;-64
2023/07/21 06:07:54;;;;;;;6.40;3.95;;;;;;;31.70;42.10;99530.38;5124340;27;20062;-64
2023/07/21 06:10:20;;;;;;;6.00;4.43;;;;;;;31.89;42.02;99533.00;5123173;27;20035;-63
2023/07/21 06:12:45;;;;;;;4.68;3.90;;;;;;;32.01;40.60;99521.50;5133073;27;20042;-63
2023/07/21 06:15:11;;;;;;;7.60;4.25;;;;;;;31.90;42.66;99529.13;5122569;27;20039;-64
2023/07/21 06:17:39;;;;;;;6.18;4.60;;;;;;;31.86;42.09;99528.13;5128961;27;20449;-64
2023/07/21 06:20:06;;;;;;;7.20;4.38;;;;;;;32.16;41.22;99526.63;5124609;27;20034;-63
2023/07/21 06:22:31;;;;;;;8.88;4.38;;;;;;;32.36;40.03;99520.72;5123221;27;20043;-64
2023/07/21 06:24:56;;;;;;;6.68;4.18;;;;;;;32.57;40.29;99521.00;5126531;27;20040;-64
2023/07/21 06:27:22;;;;;;;8.40;4.40;;;;;;;32.70;40.65;99528.34;5126134;27;20066;-63
2023/07/21 06:29:47;;;;;;;6.93;4.78;;;;;;;32.82;39.56;99529.72;5128575;27;20083;-64
2023/07/21 06:32:13;;;;;;;10.27;4.20;;;;;;;33.00;39.57;99529.50;5105037;27;20032;-64
2023/07/21 06:34:38;;;;;;;6.22;4.55;;;;;;;33.16;39.94;99531.81;5122242;27;20092;-64
2023/07/21 06:37:04;;;;;;;6.65;4.32;;;;;;;33.22;40.19;99528.63;5123066;27;20042;-63
2023/07/21 06:39:29;;;;;;;7.43;4.60;;;;;;;33.39;38.33;99519.69;5124816;27;20092;-64
2023/07/21 06:41:55;;;;;;;6.07;4.18;;;;;;;33.46;38.34;99519.22;5123782;27;20043;-64
2023/07/21 06:44:20;;;;;;;9.15;4.53;;;;;;;33.66;37.94;99520.56;5128058;27;20027;-63
2023/07/21 06:46:49;;;;;;;6.70;4.50;;;;;;;33.77;37.90;99524.63;5125171;27;20032;-64
2023/07/21 06:49:15;;;;;;;7.72;4.13;;;;;;;33.85;36.40;99524.66;5123117;27;20104;-64
2023/07/21 06:51:40;;;;;;;6.97;4.28;;;;;;;33.75;38.17;99530.44;5122642;27;20229;-63
2023/07/21 06:54:07;;;;;;;6.90;4.63;;;;;;;33.91;37.00;99526.13;5126039;27;21551;-63
2023/07/21 06:56:32;;;;;;;5.95;4.28;;;;;;;34.03;35.95;99514.50;5122793;27;20031;-64
2023/07/21 06:58:57;;;;;;;7.57;4.50;;;;;;;34.22;36.30;99514.16;5125854;27;20042;-63
2023/07/21 07:01:23;;;;;;;8.25;4.35;;;;;;;34.40;36.53;99512.28;5125076;27;20035;-63
2023/07/21 07:03:48;;;;;;;11.10;4.78;;;;;;;34.44;35.99;99510.50;5122196;27;20028;-63
2023/07/21 07:06:14;;;;;;;9.00;4.50;;;;;;;34.62;35.28;99505.75;5126569;27;20044;-63
2023/07/21 07:08:39;;;;;;;7.68;4.70;;;;;;;34.74;35.07;99509.44;5124793;27;20069;-63
2023/07/21 07:11:04;;;;;;;8.55;5.07;;;;;;;34.84;34.98;99503.63;5122589;27;20039;-65
2023/07/21 07:13:30;;;;;;;7.13;4.47;;;;;;;34.95;34.22;99506.00;5126774;27;20205;-64
2023/07/21 07:15:55;;;;;;;8.32;4.35;;;;;;;34.50;34.98;99511.94;5121368;27;20325;-64
2023/07/21 07:18:21;;;;;;;6.82;4.03;;;;;;;34.27;35.05;99512.06;5124413;27;20039;-63
2023/07/21 07:20:48;;;;;;;6.93;4.18;;;;;;;34.68;34.40;99507.19;5126495;27;20360;-64
2023/07/21 07:23:14;;;;;;;7.20;4.45;;;;;;;34.54;35.46;99516.44;5124167;27;20361;-64
2023/07/21 07:25:39;;;;;;;8.23;4.30;;;;;;;34.25;35.17;99508.84;5122732;27;20044;-64
2023/07/21 07:28:06;;;;;;;6.30;4.55;;;;;;;34.47;35.39;99504.34;5121653;27;20035;-64
2023/07/21 07:30:34;;;;;;;7.63;4.32;;;;;;;34.63;34.95;99504.63;5125747;27;20027;-64
2023/07/21 07:32:59;;;;;;;7.13;5.25;;;;;;;34.87;34.09;99511.22;5122917;27;20048;-64
2023/07/21 07:35:24;;;;;;;8.18;4.63;;;;;;;34.78;34.85;99506.84;5126325;27;20236;-65
2023/07/21 07:37:50;;;;;;;6.95;4.18;;;;;;;34.94;34.55;99507.94;5123446;27;20349;-64
2023/07/21 07:40:15;;;;;;;7.68;5.00;;;;;;;34.27;36.42;99512.06;5127174;27;20418;-64
2023/07/21 07:42:41;;;;;;;6.80;4.97;;;;;;;34.16;35.60;99521.78;5135740;27;20096;-63
2023/07/21 07:45:07;;;;;;;6.43;4.60;;;;;;;33.82;36.23;99513.50;5139486;27;20071;-64
2023/07/21 07:47:34;;;;;;;5.53;4.28;;;;;;;34.40;34.16;99502.09;5139185;27;20035;-64
2023/07/21 07:50:00;;;;;;;6.30;4.40;;;;;;;34.78;35.44;99513.16;5138685;27;20232;-63
2023/07/21 07:52:25;;;;;;;6.35;3.83;;;;;;;34.51;32.90;99514.34;5138990;27;20042;-63
2023/07/21 07:54:50;;;;;;;5.18;3.50;;;;;;;34.81;32.31;99507.00;5140076;27;20031;-64
2023/07/21 07:57:18;;;;;;;4.82;3.50;;;;;;;34.82;30.25;99507.84;5138463;27;20225;-64
2023/07/21 07:59:43;;;;;;;12.98;4.30;;;;;;;34.72;30.95;99505.41;5135085;27;20420;-64
2023/07/21 08:02:09;;;;;;;5.97;3.65;;;;;;;34.56;29.80;99513.38;5138372;27;20333;-63
2023/07/21 08:04:34;;;;;;;7.15;3.53;;;;;;;34.75;31.40;99510.25;5138917;27;20067;-64
2023/07/21 08:06:59;;;;;;;4.80;3.17;;;;;;;34.48;33.26;99519.69;5137719;27;20027;-64
2023/07/21 08:09:25;;;;;;;5.45;3.60;;;;;;;33.92;32.09;99522.25;5138941;27;20042;-64
2023/07/21 08:11:50;;;;;;;8.13;3.60;;;;;;;33.78;33.10;99529.00;5138765;27;20309;-63
2023/07/21 08:14:16;;;;;;;4.78;3.10;;;;;;;33.68;33.46;99529.28;5138904;27;20045;-64
2023/07/21 08:16:41;;;;;;;8.60;3.60;;;;;;;33.51;35.28;99536.38;5138643;27;20272;-63
2023/07/21 08:19:08;;;;;;;4.63;3.33;;;;;;;33.84;35.79;99528.53;5138837;27;20035;-63
2023/07/21 08:21:34;;;;;;;5.22;3.83;;;;;;;33.77;35.46;99525.44;5120634;27;20351;-63
2023/07/21 08:24:00;;;;;;;6.18;4.20;;;;;;;33.43;34.95;99534.41;5139419;27;20070;-63
2023/07/21 08:26:26;;;;;;;6.53;3.92;;;;;;;33.29;36.63;99526.28;5139321;27;20038;-63
2023/07/21 08:28:52;;;;;;;5.88;3.65;;;;;;;33.31;36.91;99531.47;5139561;27;20031;-63
2023/07/21 08:31:19;;;;;;;6.90;3.72;;;;;;;33.43;36.85;99528.09;5139033;27;20198;-63
2023/07/21 08:33:44;;;;;;;4.85;3.72;;;;;;;33.42;37.46;99531.97;5139668;27;20039;-63
2023/07/21 08:36:10;;;;;;;5.93;4.40;;;;;;;33.35;36.19;99532.44;5139567;27;20031;-63
2023/07/21 08:38:35;;;;;;;6.70;3.80;;;;;;;33.30;35.86;99527.91;5138382;27;20039;-63
2023/07/21 08:41:06;;;;;;;6.28;4.40;;;;;;;33.67;35.51;99527.69;5138026;27;20034;-63
2023/07/21 08:43:32;;;;;;;4.70;4.10;;;;;;;33.72;37.92;99522.84;5137565;27;20329;-63
2023/07/21 08:46:02;;;;;;;5.65;3.80;;;;;;;33.67;36.70;99516.69;5137462;27;20027;-64
2023/07/21 08:48:28;;;;;;;6.68;3.90;;;;;;;33.71;39.34;99523.16;5138996;27;20397;-63
2023/07/21 08:50:57;;;;;;;6.03;3.80;;;;;;;33.57;37.13;99532.34;5138765;27;20059;-64
2023/07/21 08:53:24;;;;;;;7.45;4.10;;;;;;;33.64;35.69;99513.47;5138250;27;20039;-62
2023/07/21 08:55:53;;;;;;;4.35;3.58;;;;;;;33.75;37.39;99510.41;5138167;27;20034;-63
2023/07/21 08:58:19;;;;;;;5.80;3.40;;;;;;;33.61;35.90;99524.28;5131018;27;20144;-64
2023/07/21 09:00:45;;;;;;;6.57;3.38;;;;;;;33.59;36.64;99508.13;5138402;27;20305;-65
2023/07/21 09:03:10;;;;;;;5.03;3.42;;;;;;;33.75;36.81;99511.22;5139241;27;20038;-64
2023/07/21 09:05:35;;;;;;;4.93;3.83;;;;;;;33.93;35.63;99506.56;5138843;27;20031;-64
2023/07/21 09:08:01;;;;;;;4.70;3.38;;;;;;;33.60;36.48;99512.50;5138441;28;20233;-64
2023/07/21 09:10:34;;;;;;;6.40;3.60;;;;;;;33.54;36.07;99516.50;5138549;27;20069;-64
2023/07/21 09:13:01;;;;;;;5.55;4.05;;;;;;;33.61;37.54;99513.28;5129981;27;20027;-64
2023/07/21 09:15:26;;;;;;;6.68;3.67;;;;;;;33.57;35.98;99518.63;5142828;27;20050;-64
2023/07/21 09:17:52;;;;;;;6.32;3.90;;;;;;;33.56;37.82;99514.25;5142102;27;20073;-63
2023/07/21 09:20:20;;;;;;;4.93;3.85;;;;;;;33.44;37.85;99514.06;5142282;27;20035;-64
2023/07/21 09:22:48;;;;;;;6.88;4.05;;;;;;;33.19;36.36;99517.47;5142412;27;20038;-64
2023/07/21 09:25:20;;;;;;;5.10;3.67;;;;;;;33.08;36.61;99511.47;5142674;27;20420;-64
2023/07/21 09:27:56;;;;;;;6.15;4.30;;;;;;;33.01;37.20;99506.44;5142403;27;20279;-64
2023/07/21 09:30:22;;;;;;;4.55;4.03;;;;;;;33.07;35.78;99511.78;5142783;27;20034;-64
2023/07/21 09:32:47;;;;;;;4.50;3.28;;;;;;;33.15;38.15;99514.56;5141737;27;20059;-64
2023/07/21 09:35:12;;;;;;;6.03;3.92;;;;;;;33.26;36.38;99513.16;5141117;27;20038;-64
2023/07/21 09:37:38;;;;;;;4.18;3.75;;;;;;;33.20;35.50;99508.94;5141471;27;20489;-64
2023/07/21 09:40:09;;;;;;;5.88;3.55;;;;;;;33.13;34.66;99500.34;5141966;27;20035;-64
2023/07/21 09:42:35;;;;;;;6.75;3.75;;;;;;;33.16;36.22;99501.66;5142062;27;20035;-64
2023/07/21 09:45:01;;;;;;;5.78;3.80;;;;;;;33.05;36.78;99495.63;5142594;27;20043;-64
2023/07/21 09:47:26;;;;;;;6.82;3.83;;;;;;;33.08;36.17;99500.50;5142471;27;20051;-64
2023/07/21 09:49:54;;;;;;;6.50;3.72;;;;;;;33.05;36.48;99501.13;5142204;27;20031;-64
2023/07/21 09:52:21;;;;;;;6.05;3.63;;;;;;;33.00;37.29;99493.03;5141927;27;20332;-63
2023/07/21 09:55:06;;;;;;;6.10;3.90;;;;;;;33.04;37.87;99501.44;5142800;27;20035;-63
2023/07/21 09:57:36;;;;;;;5.30;3.95;;;;;;;33.05;37.64;99494.81;5140414;27;20041;-63
2023/07/21 10:00:12;;;;;;;5.32;3.50;;;;;;;33.07;35.13;99482.41;5142352;27;20102;-64
2023/07/21 10:02:40;;;;;;;5.07;3.60;;;;;;;33.06;35.31;99477.25;5140889;27;20031;-63
2023/07/21 10:05:07;;;;;;;4.55;3.78;;;;;;;33.07;33.98;99479.66;5142003;27;20043;-63
2023/07/21 10:07:34;;;;;;;5.60;3.58;;;;;;;33.09;35.11;99493.88;5141404;27;20035;-64
2023/07/21 10:10:00;;;;;;;5.15;3.40;;;;;;;33.06;35.67;99488.22;5142201;27;20114;-64
2023/07/21 10:12:41;;;;;;;5.38;3.70;;;;;;;32.99;35.47;99483.19;5141562;27;20031;-64
2023/07/21 10:15:19;;;;;;;4.90;3.40;;;;;;;32.85;35.30;99491.53;5142805;27;20031;-63
2023/07/21 10:18:11;;;;;;;5.68;4.00;;;;;;;33.00;37.78;99485.63;5141046;27;20035;-64
2023/07/21 10:20:41;;;;;;;7.18;3.75;;;;;;;32.90;34.99;99499.59;5137287;27;20062;-64
2023/07/21 10:23:08;;;;;;;5.82;4.03;;;;;;;32.89;33.83;99484.28;5141669;27;20066;-64
2023/07/21 10:25:56;;;;;;;4.28;3.65;;;;;;;32.90;36.51;99476.84;5141929;27;20335;-63
2023/07/21 10:28:32;;;;;;;4.30;3.67;;;;;;;32.95;35.80;99474.78;5141624;27;20047;-63
2023/07/21 10:31:25;;;;;;;6.00;3.05;;;;;;;33.00;33.97;99480.13;5132507;27;20035;-63
2023/07/21 10:34:06;;;;;;;;;;;;;;;32.99;35.62;99474.97;5138482;27;20303;-64
2023/07/21 10:36:44;;;;;;;5.22;3.78;;;;;;;33.00;35.11;99468.34;5140704;27;19919;-63
2023/07/21 10:39:11;;;;;;;5.57;3.38;;;;;;;32.95;34.91;99476.72;5140959;27;20397;-63
2023/07/21 10:41:39;;;;;;;4.70;3.50;;;;;;;32.93;35.93;99459.78;5140953;27;20225;-64
2023/07/21 10:44:09;;;;;;;5.50;3.40;;;;;;;33.00;35.25;99471.91;5141106;27;20099;-63
2023/07/21 10:46:38;;;;;;;4.30;3.83;;;;;;;33.00;34.76;99465.59;5140540;27;20050;-64
2023/07/21 10:49:04;;;;;;;3.78;3.20;;;;;;;33.17;33.93;99471.16;5141417;27;20070;-64
2023/07/21 10:51:30;;;;;;;6.95;3.50;;;;;;;33.25;35.80;99464.88;5140926;27;20054;-64
2023/07/21 10:53:56;;;;;;;4.53;3.65;;;;;;;33.37;34.65;99464.31;5140689;27;20317;-64
2023/07/21 10:56:22;;;;;;;5.53;3.83;;;;;;;33.31;33.69;99471.91;5141561;27;20041;-63
2023/07/21 10:58:52;;;;;;;6.43;3.83;;;;;;;33.10;34.68;99461.78;5140411;27;20264;-63
2023/07/21 11:01:19;;;;;;;4.97;3.65;;;;;;;33.11;33.78;99460.63;5140999;27;20221;-63
2023/07/21 11:03:48;;;;;;;5.63;3.75;;;;;;;33.01;35.56;99454.31;5141087;27;20046;-63
2023/07/21 11:06:16;;;;;;;4.43;3.70;;;;;;;33.12;34.49;99454.84;5140573;27;20031;-63
2023/07/21 11:08:42;;;;;;;4.05;3.67;;;;;;;33.23;33.70;99450.66;5140272;27;20043;-62
2023/07/21 11:11:11;;;;;;;6.63;3.60;;;;;;;33.28;35.33;99441.47;5140035;27;20053;-62
2023/07/21 11:13:39;;;;;;;5.55;3.40;;;;;;;33.25;32.66;99440.19;5140764;27;20035;-62
2023/07/21 11:16:05;;;;;;;5.13;4.10;;;;;;;33.23;32.61;99431.47;5140359;27;20050;-62
2023/07/21 11:18:30;;;;;;;5.50;3.83;;;;;;;33.23;33.52;99458.09;5140394;27;20253;-63
2023/07/21 11:20:56;;;;;;;5.60;3.72;;;;;;;33.20;32.23;99434.84;5140110;27;20354;-62
2023/07/21 11:23:23;;;;;;;9.15;3.80;;;;;;;33.31;32.87;99422.50;5140670;27;20043;-63
2023/07/21 11:26:06;;;;;;;5.20;3.83;;;;;;;33.63;31.80;99418.50;5139986;27;20316;-63
2023/07/21 11:28:33;;;;;;;4.05;3.53;;;;;;;33.61;33.33;99409.78;5139970;27;20399;-63
2023/07/21 11:31:00;;;;;;;5.00;3.65;;;;;;;33.61;32.94;99422.69;5140098;27;20047;-63